SVW weather

Sparrevohn LRRS Airport
Sparrevohn, Alaska, United States

Public forecast

Using degrees Fahrenheit for public forecast. Weather courtesy of forecast.io.

Current aviation weather report (METAR) for Sparrevohn LRRS Airport

Retrieved 2019/10/14 18:55 UTC (10 minutes ago):

PASV 141855Z AUTO 00000KT 10SM CLR M01/M09 A2969

Closest aviation forecast (TAF) to Sparrevohn LRRS Airport

Closest forecast is Iliamna Airport, 83.0 nm (153.7 km) SSE. Retrieved 2019/10/14 18:42 UTC (23 minutes ago):

TAF PAIL 141738Z 1418/1518 01008KT P6SM FEW200 FM142200 07010KT P6SM FEW200 FM151200 01008KT P6SM SCT150